Latest Weather Observations for Red Rocks Point

IDW60801

Issued at 4:05 pm WST Wednesday 22 October 2014 (issued every 30 minutes, with the page automatically refreshed every 10 minutes)

About weather observations | Map of weather stations | Latest weather observations for WA | Other Formats
Station Details ID: 011053 Name: RED ROCKS POINT Lat: -32.20 Lon: 127.53 Height: 3.1 m
Data from the previous 72 hours. | See also: Recent months for locations in Western Australia
Date/Time
WST
Temp
°C
App
Temp
°C
Dew
Point
Rel
Hum
%
Delta-T
°C
Wind Press
QNH
hPa
Press
MSL
hPa
Rain
since 9 am
mm
Dir
 
Spd
km/h
Gust
km/h
Spd
kts
Gust
kts
22/04:00pm 18.2 13.6 14.5 79 2.1 E 32 37 17 20 1021.0 - 0.0
22/03:30pm 18.4 13.7 14.3 77 2.4 ESE 32 35 17 19 1021.1 - 0.0
22/03:00pm 19.2 14.6 14.7 75 2.6 ESE 32 35 17 19 1021.3 1021.3 0.0
22/02:30pm 19.2 15.0 14.7 75 2.6 ESE 30 35 16 19 1021.7 - 0.0
22/02:00pm 19.5 15.6 15.4 77 2.4 ESE 30 33 16 18 1021.9 - 0.0
22/01:30pm 20.0 16.5 14.4 70 3.3 ESE 26 32 14 17 1022.3 - 0.0
22/01:00pm 20.1 16.1 14.2 69 3.4 ESE 28 32 15 17 1022.6 - 0.0
22/12:30pm 20.1 16.4 14.9 72 3.0 ESE 28 32 15 17 1022.7 - 0.0
22/12:00pm 20.7 17.2 14.4 67 3.7 ESE 26 30 14 16 1022.8 1022.8 0.0
22/11:30am 20.6 17.9 14.7 69 3.5 ESE 22 26 12 14 1023.2 - 0.0
22/11:00am 19.7 18.0 13.6 68 3.5 E 15 19 8 10 1023.6 - 0.0
22/10:30am 19.1 16.5 13.7 71 3.1 E 20 24 11 13 1023.8 - 0.0
22/10:00am 19.4 16.5 14.0 71 3.1 E 22 26 12 14 1024.0 - 0.0
22/09:00am 18.8 16.1 13.6 72 2.9 E 20 26 11 14 1024.3 1024.3 0.0
22/08:30am 18.3 14.9 13.8 75 2.6 E 24 26 13 14 1024.2 - 0.0
22/08:00am 18.8 15.7 13.4 71 3.1 ESE 22 26 12 14 1024.1 - 0.0
22/07:30am 18.4 14.9 13.5 73 2.8 ESE 24 26 13 14 1024.1 - 0.0
22/07:00am 18.2 15.8 14.5 79 2.1 ESE 20 22 11 12 1024.2 - 0.0
22/06:30am 18.0 15.8 14.9 82 1.8 ESE 20 24 11 13 1023.7 - 0.0
22/06:00am 17.9 16.2 14.8 82 1.8 ESE 17 20 9 11 1023.5 1023.5 0.0
22/05:30am 17.5 16.2 14.8 84 1.6 SE 15 20 8 11 1023.4 - 0.0
22/05:00am 17.5 15.8 14.8 84 1.6 SE 17 20 9 11 1023.0 - 0.0
22/04:30am 17.4 15.7 14.7 84 1.6 SE 17 20 9 11 1022.5 - 0.0
22/04:00am 17.4 15.3 14.7 84 1.6 SE 19 20 10 11 1022.5 - 0.0
22/03:30am 17.5 15.1 14.4 82 1.8 ESE 20 24 11 13 1022.3 - 0.0
22/03:00am 17.5 15.4 14.6 83 1.7 ESE 19 22 10 12 1022.2 1022.2 0.0
22/02:30am 17.4 15.2 14.5 83 1.7 SE 19 20 10 11 1022.1 - 0.0
22/02:00am 17.3 15.7 14.9 86 1.4 SE 17 20 9 11 1022.1 - 0.0
22/01:30am 17.3 15.7 15.1 87 1.3 ESE 17 19 9 10 1022.2 - 0.0
22/01:00am 17.6 17.5 15.0 85 1.5 SE 9 13 5 7 1022.3 - 0.0
22/12:30am 17.7 17.7 15.3 86 1.4 SSE 9 13 5 7 1022.3 - 0.0
22/12:00am 17.6 16.6 14.7 83 1.7 S 13 15 7 8 1022.6 1022.6 0.0
 
Date/Time
WST
Temp
°C
App
Temp
°C
Dew
Point
Rel
Hum
%
Delta-T
°C
Wind Press
QNH
hPa
Press
MSL
hPa
Rain
since 9 am
mm
Dir
 
Spd
km/h
Gust
km/h
Spd
kts
Gust
kts
21/11:30pm 17.8 16.8 14.5 81 1.9 SSE 13 17 7 9 1022.8 - 0.0
21/11:00pm 17.7 17.1 14.6 82 1.8 S 11 13 6 7 1023.0 - 0.0
21/10:30pm 17.8 16.0 14.5 81 1.9 S 17 20 9 11 1023.2 - 0.0
21/10:00pm 17.8 16.6 15.1 84 1.6 S 15 19 8 10 1023.4 - 0.0
21/09:30pm 17.8 16.2 15.1 84 1.6 SSE 17 19 9 10 1023.5 - 0.0
21/09:00pm 17.9 16.4 15.2 84 1.6 SSE 17 20 9 11 1023.7 1023.7 0.0
21/08:30pm 18.1 16.6 15.4 84 1.6 SSE 17 20 9 11 1023.7 - 0.0
21/08:00pm 18.0 16.1 15.3 84 1.6 S 19 22 10 12 1023.6 - 0.0
21/07:30pm 18.0 15.9 15.3 84 1.6 S 20 24 11 13 1023.4 - 0.0
21/07:00pm 18.1 16.4 15.7 86 1.4 S 19 22 10 12 1023.0 - 0.0
21/06:30pm 17.9 15.9 15.5 86 1.4 S 20 28 11 15 1022.5 - 0.0
21/06:00pm 17.8 15.7 15.2 85 1.5 SSW 20 24 11 13 1022.1 1022.1 0.0
21/05:30pm 18.2 15.9 15.6 85 1.5 S 22 26 12 14 1022.0 - 0.0
21/05:00pm 18.5 16.2 15.7 84 1.7 S 22 26 12 14 1021.5 - 0.0
21/04:30pm 19.2 17.4 16.1 82 1.8 S 20 24 11 13 1021.0 - 0.0
21/04:00pm 19.8 18.0 15.9 78 2.3 SSW 20 24 11 13 1020.6 - 0.0
21/03:30pm 20.1 17.9 15.9 77 2.5 S 22 30 12 16 1020.4 - 0.0
21/03:00pm 20.8 18.9 16.6 77 2.5 S 22 28 12 15 1020.1 1020.1 0.0
21/02:30pm 21.0 19.1 16.8 77 2.6 S 22 28 12 15 1020.0 - 0.0
21/02:00pm 21.1 18.9 16.9 77 2.6 S 24 28 13 15 1019.9 - 0.0
21/01:30pm 21.8 19.4 16.5 72 3.2 S 24 30 13 16 1020.0 - 0.0
21/01:00pm 22.2 19.7 16.2 69 3.6 SSW 24 32 13 17 1020.2 - 0.0
21/12:30pm 22.1 19.6 16.1 69 3.6 SSW 24 32 13 17 1020.1 - 0.0
21/12:00pm 22.9 20.9 16.4 67 3.9 SSW 22 28 12 15 1020.3 1020.3 0.0
21/11:30am 22.0 19.9 16.1 69 3.6 SSW 22 28 12 15 1020.4 - 0.0
21/11:00am 22.0 19.7 15.6 67 3.8 SW 22 26 12 14 1020.4 - 0.0
21/10:30am 22.4 20.3 15.3 64 4.2 SW 20 28 11 15 1020.2 - 0.0
21/10:00am 22.2 19.7 15.1 64 4.2 SW 22 28 12 15 1020.0 - 0.0
21/09:30am 22.8 21.2 16.4 67 3.9 WSW 20 28 11 15 1019.8 - 0.0
21/09:00am 23.4 22.6 16.0 63 4.5 SW 15 22 8 12 1019.9 1019.9 0.0
21/08:30am 22.8 22.3 14.9 61 4.7 S 11 15 6 8 1019.8 - 0.0
21/08:00am 21.5 21.4 14.9 66 3.9 S 9 11 5 6 1019.7 - 0.0
21/07:30am 21.2 21.7 15.5 70 3.4 S 7 11 4 6 1019.3 - 0.0
21/07:00am 20.5 22.6 16.3 77 2.5 CALM 0 0 0 0 1019.0 - 0.0
21/06:30am 19.3 21.7 16.9 86 1.5 CALM 0 0 0 0 1018.9 - 0.0
21/06:00am 16.7 18.5 15.4 92 0.8 CALM 0 0 0 0 1018.4 1018.4 0.0
21/05:30am 15.0 15.0 14.2 95 0.5 N 7 17 4 9 1018.1 - 0.0
21/05:00am 13.3 13.7 12.5 95 0.4 ENE 2 9 1 5 1017.7 - 0.0
21/04:30am 13.1 12.6 12.2 94 0.5 S 6 9 3 5 1017.3 - 0.0
21/04:00am 13.9 13.2 13.1 95 0.4 SW 9 13 5 7 1016.7 - 0.0
21/03:30am 12.9 11.4 12.0 94 0.5 W 11 17 6 9 1016.5 - 0.0
21/03:00am 13.1 13.8 12.2 94 0.5 CALM 0 0 0 0 1016.2 1016.2 0.0
21/02:30am 13.2 13.9 12.1 93 0.6 CALM 0 0 0 0 1015.9 - 0.0
21/02:00am 13.4 14.0 12.0 91 0.8 CALM 0 0 0 0 1015.7 - 0.0
21/01:30am 14.9 13.7 13.9 94 0.6 W 13 17 7 9 1015.7 - 0.0
21/01:00am 14.4 15.4 13.3 93 0.6 CALM 0 0 0 0 1015.6 - 0.0
21/12:30am 14.4 15.4 13.1 92 0.7 CALM 0 0 0 0 1015.8 - 0.0
21/12:00am 14.5 15.4 12.9 90 0.9 CALM 0 0 0 0 1016.1 1016.1 0.0
 
Date/Time
WST
Temp
°C
App
Temp
°C
Dew
Point
Rel
Hum
%
Delta-T
°C
Wind Press
QNH
hPa
Press
MSL
hPa
Rain
since 9 am
mm
Dir
 
Spd
km/h
Gust
km/h
Spd
kts
Gust
kts
20/11:30pm 15.2 16.3 13.4 89 1.0 CALM 0 0 0 0 1016.1 - 0.0
20/11:00pm 16.0 17.1 13.5 85 1.4 CALM 0 0 0 0 1016.2 - 0.0
20/10:30pm 18.2 20.2 16.0 87 1.3 CALM 0 0 0 0 1016.2 - 0.0
20/10:00pm 18.1 20.0 15.7 86 1.4 CALM 0 0 0 0 1016.4 - 0.0
20/09:30pm 18.4 20.4 16.0 86 1.4 CALM 0 0 0 0 1016.7 - 0.0
20/09:00pm 18.3 20.3 15.9 86 1.4 CALM 0 0 0 0 1016.4 1016.4 0.0
20/08:30pm 18.4 18.7 16.0 86 1.4 SE 9 11 5 6 1016.2 - 0.0
20/08:00pm 18.6 18.7 16.4 87 1.3 SSE 11 13 6 7 1015.9 - 0.0
20/07:30pm 18.4 18.8 16.2 87 1.3 SE 9 13 5 7 1015.6 - 0.0
20/07:00pm 18.3 18.9 15.9 86 1.4 SSE 7 9 4 5 1015.0 - 0.0
20/06:30pm 18.8 19.2 16.2 85 1.6 SSE 9 13 5 7 1014.6 - 0.0
20/06:00pm 19.1 19.1 16.3 84 1.7 SSE 11 13 6 7 1014.2 1014.2 0.0
20/05:30pm 19.8 18.7 16.3 80 2.1 SSE 17 20 9 11 1013.8 - 0.0
20/05:00pm 20.4 20.5 16.6 79 2.3 SSE 11 15 6 8 1013.5 - 0.0
20/04:30pm 20.8 20.5 16.4 76 2.7 S 13 24 7 13 1012.7 - 0.0
20/04:00pm 20.8 20.1 16.4 76 2.7 S 15 20 8 11 1012.1 - 0.0
20/03:30pm 21.5 20.0 16.7 74 2.9 S 20 26 11 14 1011.8 - 0.0
20/03:00pm 23.2 21.7 16.7 67 4.0 S 20 30 11 16 1011.4 1011.4 0.0
20/02:39pm 26.9 24.4 13.6 44 7.9 SW 19 37 10 20 1011.4 - 0.0
20/02:30pm 32.0 28.1 9.5 25 12.7 NNW 20 41 11 22 1010.9 - 0.0
20/02:00pm 31.5 26.7 10.2 27 12.2 N 26 41 14 22 1011.1 - 0.0
20/01:30pm 30.5 26.3 9.9 28 11.7 NW 22 37 12 20 1011.2 - 0.0
20/01:00pm 31.2 26.2 8.2 24 12.7 N 24 44 13 24 1011.6 - 0.0
20/12:30pm 31.8 28.7 12.1 30 11.6 NNW 20 41 11 22 1012.1 - 0.0
20/12:00pm 30.9 26.9 11.8 31 11.2 N 24 39 13 21 1012.7 1012.7 0.0
20/11:30am 28.9 24.5 12.8 37 9.5 N 28 41 15 22 1013.3 - 0.0
20/11:00am 26.6 21.9 14.4 47 7.3 NNE 32 46 17 25 1014.0 - 0.0
20/10:30am 25.2 20.4 14.6 51 6.3 NNE 33 46 18 25 1015.0 - 0.0
20/10:22am 25.0 21.2 14.8 53 6.1 N 28 46 15 25 1015.2 - 0.0
20/10:00am 23.8 21.8 15.0 57 5.3 N 19 32 10 17 1015.3 - 0.0
20/09:30am 22.5 20.9 15.1 63 4.4 N 17 22 9 12 1015.0 - 0.0
20/09:00am 21.0 22.1 15.5 71 3.3 NNW 4 13 2 7 1013.4 1013.4 0.0
20/08:30am 19.5 19.0 15.8 79 2.2 NE 13 19 7 10 1012.7 - 0.0
20/08:00am 18.2 14.1 16.0 87 1.3 ENE 32 39 17 21 1011.8 - 0.0
20/07:30am 18.0 11.9 16.2 89 1.1 ENE 43 54 23 29 1012.4 - 0.0
20/07:00am 17.6 11.8 15.9 90 1.0 ENE 41 46 22 25 1012.6 - 0.0
20/06:59am 17.7 11.9 15.9 89 1.1 ENE 41 46 22 25 1012.5 - 0.0
20/06:51am 17.6 16.1 15.4 87 1.3 E 17 20 9 11 1012.4 - 0.0
20/06:30am 17.2 16.1 15.2 88 1.2 NE 15 28 8 15 1014.4 - 0.0
20/06:00am 16.8 12.0 15.7 93 0.6 ENE 35 46 19 25 1014.4 1014.4 0.0
20/05:30am 16.7 15.2 15.4 92 0.8 ENE 17 37 9 20 1014.6 - 0.0
20/05:00am 16.6 15.4 15.0 90 0.9 NE 15 26 8 14 1016.1 - 0.0
20/04:30am 16.6 16.1 14.8 89 1.0 NE 11 17 6 9 1016.5 - 0.0
20/04:00am 17.1 15.6 15.4 90 1.0 E 17 20 9 11 1017.1 - 0.0
20/03:30am 16.9 16.1 15.1 89 1.0 E 13 17 7 9 1016.0 - 0.0
20/03:00am 16.9 16.1 15.1 89 1.0 SE 13 17 7 9 1015.0 1015.0 0.0
20/02:30am 17.0 14.9 15.2 89 1.0 SE 20 24 11 13 1014.8 - 0.0
20/02:00am 17.1 14.7 15.3 89 1.0 ESE 22 26 12 14 1015.4 - 0.0
20/01:30am 17.3 15.2 15.1 87 1.3 E 20 26 11 14 1015.9 - 0.0
20/01:00am 17.2 16.1 15.2 88 1.2 E 15 19 8 10 1017.8 - 0.0
20/12:30am 16.8 17.1 14.6 87 1.3 SSW 6 13 3 7 1017.7 - 0.0
20/12:00am 17.1 17.3 14.6 85 1.4 W 7 13 4 7 1018.4 1018.4 0.0
 
Date/Time
WST
Temp
°C
App
Temp
°C
Dew
Point
Rel
Hum
%
Delta-T
°C
Wind Press
QNH
hPa
Press
MSL
hPa
Rain
since 9 am
mm
Dir
 
Spd
km/h
Gust
km/h
Spd
kts
Gust
kts
19/11:30pm 17.3 16.4 14.9 86 1.4 NE 13 28 7 15 1018.5 - 0.0
19/11:00pm 17.4 14.2 15.2 87 1.3 E 26 30 14 16 1017.7 - 0.0
19/10:30pm 17.3 12.3 15.1 87 1.3 E 35 41 19 22 1017.4 - 0.0
19/10:00pm 17.2 11.8 15.0 87 1.3 E 37 50 20 27 1016.0 - 0.0
19/09:57pm 17.3 11.6 15.1 87 1.3 ENE 39 50 21 27 1016.2 - 0.0
19/09:30pm 17.2 10.2 15.2 88 1.2 ESE 46 57 25 31 1014.8 - 0.0
19/09:24pm 17.2 10.1 15.0 87 1.3 E 46 57 25 31 1014.2 - 0.0
19/09:00pm 17.3 11.2 15.1 87 1.3 E 41 57 22 31 1016.3 1016.3 0.0
19/08:59pm 17.3 10.8 15.1 87 1.3 E 43 61 23 33 1016.3 - 0.0
19/08:30pm 17.4 10.4 15.2 87 1.3 E 46 61 25 33 1015.9 - 0.0
19/08:13pm 17.3 9.8 14.9 86 1.4 E 48 56 26 30 1015.6 - 0.0
19/08:00pm 17.4 10.9 15.2 87 1.3 ESE 43 52 23 28 1017.6 - 0.0
19/07:52pm 17.2 12.5 14.8 86 1.4 ESE 33 52 18 28 1015.7 - 0.0
19/07:46pm 17.4 11.6 15.0 86 1.4 ESE 39 57 21 31 1017.7 - 0.0
19/07:30pm 17.4 10.9 15.2 87 1.3 ESE 43 50 23 27 1016.5 - 0.0
19/07:00pm 17.4 10.9 15.2 87 1.3 ESE 43 52 23 28 1015.9 - 0.0
19/06:50pm 17.4 11.2 15.0 86 1.4 ESE 41 50 22 27 1015.7 - 0.0
19/06:30pm 17.5 13.0 15.0 85 1.5 E 32 35 17 19 1017.7 - 0.0
19/06:00pm 17.6 13.1 14.9 84 1.6 E 32 39 17 21 1017.7 1017.7 0.0
19/05:30pm 17.6 13.0 15.0 85 1.5 ESE 33 39 18 21 1017.3 - 0.0
19/05:00pm 17.6 12.2 15.0 85 1.5 ESE 37 44 20 24 1016.6 - 0.0
19/04:30pm 17.7 11.2 15.1 85 1.5 ESE 43 52 23 28 1016.0 - 0.0

Other Formats:

Comma delimited format used in spreadsheet applications
http://www.bom.gov.au/fwo/IDW60801/IDW60801.94644.axf

JavaScript Object Notation format (JSON) in row-major order
http://www.bom.gov.au/fwo/IDW60801/IDW60801.94644.json